Terminal Aerodrome Forecast
Issued by NWS

Home | Current Version | Previous Version | Text Only | Print | Product List | Glossary On
Versions: 1 2 3 4 5 6 7 8 9 10 11 12 13 14 15 16 17 18 19 20 21 22 23 24 25 26 27 28
801
FTUS43 KDVN 142136 AAC
TAFCID
TAF AMD
KCID 142136Z 1422/1518 17013KT P6SM BKN018 OVC022
      TEMPO 1422/1424 5SM -SN
     FM150000 16010KT 2SM -SN BR OVC018
     FM150300 15006KT 1SM -SN BR OVC015
     FM150900 30012KT 4SM -SN BR OVC020
     FM151300 31018G27KT 6SM -SN BLSN OVC012=

USA.gov is the U.S. government's official web portal to all federal, state and local government web resources and services.